createdAt,value
2022-12-06T00:01:26.463Z,24.30
2022-12-06T00:03:59.561Z,24.85
2022-12-06T00:06:49.336Z,27.15
2022-12-06T00:09:32.100Z,27.98
2022-12-06T00:11:59.749Z,26.77
2022-12-06T00:14:27.259Z,22.98
2022-12-06T00:16:54.365Z,21.80
2022-12-06T00:19:23.612Z,24.52
2022-12-06T00:21:50.769Z,22.15
2022-12-06T00:24:20.513Z,21.48
2022-12-06T00:26:49.363Z,22.48
2022-12-06T00:29:23.863Z,21.30
2022-12-06T00:31:57.864Z,22.77
2022-12-06T00:34:25.023Z,20.85
2022-12-06T00:36:52.062Z,21.70
2022-12-06T00:39:19.212Z,23.65
2022-12-06T00:41:46.377Z,27.55
2022-12-06T00:44:13.422Z,22.55
2022-12-06T00:46:40.606Z,23.02
2022-12-06T00:49:09.278Z,24.05
2022-12-06T00:51:37.937Z,22.70
2022-12-06T00:54:05.954Z,21.58
2022-12-06T00:56:35.149Z,21.77
2022-12-06T00:59:02.109Z,20.42
2022-12-06T01:01:30.969Z,17.98
2022-12-06T01:04:01.274Z,20.27
2022-12-06T01:06:30.535Z,21.08
2022-12-06T01:08:59.998Z,21.83
2022-12-06T01:11:28.361Z,21.38
2022-12-06T01:13:56.687Z,20.98
2022-12-06T01:16:27.142Z,19.55
2022-12-06T01:18:59.520Z,16.48
2022-12-06T01:21:28.004Z,18.15
2022-12-06T01:23:54.932Z,18.30
2022-12-06T01:26:27.894Z,19.08
2022-12-06T01:28:55.077Z,19.58
2022-12-06T01:31:22.106Z,20.55
2022-12-06T01:33:49.085Z,20.13
2022-12-06T01:36:26.005Z,19.38
2022-12-06T01:38:55.608Z,20.48
2022-12-06T01:41:25.191Z,19.70
2022-12-06T01:43:52.923Z,19.25
2022-12-06T01:46:35.116Z,19.98
2022-12-06T01:49:14.100Z,23.50
2022-12-06T01:51:49.607Z,23.73
2022-12-06T01:54:19.846Z,24.35
2022-12-06T01:56:49.119Z,22.60
2022-12-06T01:59:16.956Z,22.23
2022-12-06T02:01:44.377Z,26.35
2022-12-06T02:04:11.417Z,24.17
2022-12-06T02:06:40.540Z,24.40
2022-12-06T02:09:09.662Z,25.65
2022-12-06T02:11:37.234Z,24.95
2022-12-06T02:14:07.729Z,24.42
2022-12-06T02:17:11.073Z,28.70
2022-12-06T02:19:44.169Z,27.63
2022-12-06T02:22:33.330Z,27.70
2022-12-06T02:25:00.153Z,27.67
2022-12-06T02:27:48.346Z,27.08
2022-12-06T02:30:51.693Z,25.38
2022-12-06T02:33:36.539Z,23.23
2022-12-06T02:36:26.687Z,22.20
2022-12-06T02:39:12.943Z,20.27
2022-12-06T02:41:45.745Z,20.88
2022-12-06T02:44:23.706Z,19.77
2022-12-06T02:46:51.583Z,19.95
2022-12-06T02:49:19.889Z,17.98
2022-12-06T02:51:48.729Z,18.35
2022-12-06T02:54:17.728Z,20.30
2022-12-06T02:56:44.562Z,19.88
2022-12-06T02:59:12.032Z,22.25
2022-12-06T03:01:45.550Z,21.08
2022-12-06T03:04:31.760Z,18.45
2022-12-06T03:07:17.541Z,19.83
2022-12-06T03:09:56.426Z,20.35
2022-12-06T03:12:47.739Z,18.85
2022-12-06T03:15:36.177Z,19.85
2022-12-06T03:18:24.322Z,20.45
2022-12-06T03:20:56.521Z,20.20
2022-12-06T03:23:35.880Z,21.23
2022-12-06T03:26:05.537Z,20.67
2022-12-06T03:28:36.786Z,21.90
2022-12-06T03:31:10.923Z,20.20
2022-12-06T03:33:42.519Z,23.42
2022-12-06T03:36:13.458Z,27.67
2022-12-06T03:38:58.949Z,27.48
2022-12-06T03:41:33.276Z,25.85
2022-12-06T03:44:00.355Z,25.17
2022-12-06T03:46:32.905Z,25.95
2022-12-06T03:49:05.661Z,25.80
2022-12-06T03:51:37.737Z,27.05
2022-12-06T03:54:06.945Z,26.85
2022-12-06T03:56:36.956Z,26.00
2022-12-06T03:59:08.800Z,26.13
2022-12-06T04:01:36.517Z,28.10
2022-12-06T04:04:03.827Z,27.13
2022-12-06T04:06:30.914Z,26.75
2022-12-06T04:09:17.844Z,33.03
2022-12-06T04:11:44.957Z,36.65
2022-12-06T04:14:11.873Z,32.90
2022-12-06T04:16:57.176Z,30.38
2022-12-06T04:19:24.446Z,26.88
2022-12-06T04:22:10.088Z,26.25
2022-12-06T04:24:36.894Z,26.92
2022-12-06T04:27:22.406Z,27.25
2022-12-06T04:30:07.914Z,23.88
2022-12-06T04:32:53.253Z,25.50
2022-12-06T04:35:38.833Z,24.90
2022-12-06T04:38:24.429Z,23.67
2022-12-06T04:40:51.396Z,22.55
2022-12-06T04:43:36.601Z,28.50
2022-12-06T04:46:03.708Z,27.17
2022-12-06T04:48:30.635Z,29.27
2022-12-06T04:50:57.597Z,33.05
2022-12-06T04:53:24.707Z,29.58
2022-12-06T04:55:52.886Z,29.15
2022-12-06T04:58:19.869Z,29.83
2022-12-06T05:00:46.798Z,30.17
2022-12-06T05:03:15.394Z,32.55
2022-12-06T05:05:42.836Z,31.80
2022-12-06T05:08:10.397Z,32.17
2022-12-06T05:10:37.472Z,34.47
2022-12-06T05:13:05.085Z,32.28
2022-12-06T05:15:34.462Z,32.20
2022-12-06T05:18:01.545Z,28.08
2022-12-06T05:20:31.285Z,35.38
2022-12-06T05:22:58.369Z,41.78
2022-12-06T05:25:25.447Z,32.60
2022-12-06T05:27:52.612Z,43.53
2022-12-06T05:30:19.621Z,33.70
2022-12-06T05:32:55.443Z,26.83
2022-12-06T05:35:24.234Z,18.05
2022-12-06T05:37:51.545Z,19.45
2022-12-06T05:40:18.601Z,17.60
2022-12-06T05:42:45.848Z,19.95
2022-12-06T05:45:13.193Z,20.95
2022-12-06T05:47:40.025Z,19.98
2022-12-06T05:50:11.460Z,20.77
2022-12-06T05:52:38.553Z,19.48
2022-12-06T05:55:06.029Z,21.77
2022-12-06T05:57:33.010Z,19.35
2022-12-06T06:00:00.159Z,22.88
2022-12-06T06:02:28.469Z,26.52
2022-12-06T06:04:55.814Z,23.40
2022-12-06T06:07:22.918Z,25.58
2022-12-06T06:09:49.782Z,20.60
2022-12-06T06:12:16.897Z,14.57
2022-12-06T06:14:43.950Z,13.75
2022-12-06T06:17:11.207Z,11.65
2022-12-06T06:19:38.270Z,11.95
2022-12-06T06:22:05.378Z,11.80
2022-12-06T06:24:37.496Z,10.80
2022-12-06T06:27:05.428Z,10.55
2022-12-06T06:29:32.497Z,8.43
2022-12-06T06:32:01.006Z,8.07
2022-12-06T06:34:28.114Z,7.00
2022-12-06T06:36:55.072Z,7.43
2022-12-06T06:39:22.290Z,8.63
2022-12-06T06:41:49.278Z,9.00
2022-12-06T06:44:19.533Z,8.10
2022-12-06T06:46:46.838Z,10.05
2022-12-06T06:49:14.064Z,8.95
2022-12-06T06:51:41.446Z,9.05
2022-12-06T06:54:08.875Z,7.65
2022-12-06T06:56:35.939Z,8.55
2022-12-06T06:59:03.160Z,6.60
2022-12-06T07:01:30.223Z,7.88
2022-12-06T07:03:57.596Z,6.82
2022-12-06T07:06:24.667Z,7.70
2022-12-06T07:08:51.850Z,9.63
2022-12-06T07:11:18.707Z,8.38
2022-12-06T07:13:51.233Z,6.40
2022-12-06T07:16:20.205Z,8.68
2022-12-06T07:18:48.053Z,7.65
2022-12-06T07:21:16.334Z,12.98
2022-12-06T07:23:43.470Z,7.20
2022-12-06T07:26:13.484Z,53.45
2022-12-06T07:28:42.961Z,52.17
2022-12-06T07:31:16.907Z,66.75
2022-12-06T07:33:45.168Z,43.38
2022-12-06T07:36:14.298Z,29.05
2022-12-06T07:38:43.485Z,28.25
2022-12-06T07:41:32.356Z,35.15
2022-12-06T07:44:20.341Z,25.23
2022-12-06T07:46:48.461Z,7.55
2022-12-06T07:49:19.881Z,7.70
2022-12-06T07:51:47.944Z,6.72
2022-12-06T07:54:16.438Z,6.28
2022-12-06T07:56:44.429Z,6.50
2022-12-06T07:59:15.626Z,5.18
2022-12-06T08:01:43.549Z,6.00
2022-12-06T08:04:11.432Z,6.68
2022-12-06T08:06:38.866Z,7.43
2022-12-06T08:09:07.484Z,7.47
2022-12-06T08:11:35.005Z,8.25
2022-12-06T08:14:02.138Z,46.65
2022-12-06T08:16:29.658Z,48.95
2022-12-06T08:18:58.048Z,26.08
2022-12-06T08:21:27.179Z,21.13
2022-12-06T08:23:55.444Z,21.20
2022-12-06T08:26:28.677Z,18.42
2022-12-06T08:29:00.211Z,12.65
2022-12-06T08:31:28.274Z,10.55
2022-12-06T08:33:55.832Z,9.38
2022-12-06T08:36:24.427Z,9.00
2022-12-06T08:38:53.167Z,11.07
2022-12-06T08:41:39.442Z,10.82
2022-12-06T08:44:07.365Z,11.77
2022-12-06T08:46:35.384Z,14.88
2022-12-06T08:49:02.875Z,12.98
2022-12-06T08:51:31.462Z,16.98
2022-12-06T08:53:58.621Z,12.45
2022-12-06T08:56:26.690Z,12.20
2022-12-06T08:58:55.301Z,14.60
2022-12-06T09:01:31.220Z,16.77
2022-12-06T09:04:06.695Z,14.93
2022-12-06T09:06:34.529Z,15.25
2022-12-06T09:09:04.674Z,15.05
2022-12-06T09:11:31.877Z,28.98
2022-12-06T09:13:58.893Z,19.83
2022-12-06T09:16:26.599Z,27.35
2022-12-06T09:18:54.276Z,12.15
2022-12-06T09:21:24.086Z,25.40
2022-12-06T09:23:54.572Z,10.80
2022-12-06T09:26:22.279Z,15.10
2022-12-06T09:28:52.624Z,17.02
2022-12-06T09:31:20.005Z,10.68
2022-12-06T09:33:47.782Z,9.57
2022-12-06T09:36:27.121Z,8.70
2022-12-06T09:39:00.085Z,9.57
2022-12-06T09:41:46.307Z,9.65
2022-12-06T09:44:42.520Z,8.50
2022-12-06T09:47:22.684Z,12.15
2022-12-06T09:50:40.971Z,11.73
2022-12-06T09:53:32.974Z,15.75
2022-12-06T09:56:40.973Z,13.05
2022-12-06T09:59:59.379Z,11.70
2022-12-06T10:02:44.239Z,12.85
2022-12-06T10:05:28.363Z,12.95
2022-12-06T10:08:09.545Z,12.00
2022-12-06T10:10:42.735Z,13.32
2022-12-06T10:13:24.894Z,12.00
2022-12-06T10:16:17.058Z,13.50
2022-12-06T10:18:49.752Z,13.20
2022-12-06T10:21:53.284Z,12.68
2022-12-06T10:24:57.334Z,48.60
2022-12-06T10:27:49.530Z,11.85
2022-12-06T10:30:17.732Z,10.43
2022-12-06T10:32:51.164Z,9.55
2022-12-06T10:35:37.401Z,11.60
2022-12-06T10:41:39.961Z,13.75
2022-12-06T10:44:25.624Z,16.52
2022-12-06T10:47:21.972Z,12.73
2022-12-06T10:49:51.920Z,11.82
2022-12-06T10:52:25.061Z,12.80
2022-12-06T10:55:05.636Z,13.85
2022-12-06T10:57:46.929Z,10.35
2022-12-06T11:00:21.170Z,12.07
2022-12-06T11:03:05.169Z,11.80
2022-12-06T11:05:44.560Z,10.88
2022-12-06T11:08:20.027Z,11.45
2022-12-06T11:10:49.240Z,11.90
2022-12-06T11:13:19.626Z,9.98
2022-12-06T11:16:00.636Z,10.05
2022-12-06T11:18:29.857Z,10.57
2022-12-06T11:21:01.176Z,8.15
2022-12-06T11:23:45.885Z,10.23
2022-12-06T11:26:18.291Z,8.93
2022-12-06T11:29:05.280Z,9.07
2022-12-06T11:31:50.084Z,9.38
2022-12-06T11:34:32.148Z,7.97
2022-12-06T11:37:07.149Z,7.70
2022-12-06T11:39:35.302Z,7.63
2022-12-06T11:42:05.356Z,6.93
2022-12-06T11:44:49.742Z,6.10
2022-12-06T11:47:22.410Z,18.15
2022-12-06T11:49:53.639Z,6.00
2022-12-06T11:52:37.977Z,5.97
2022-12-06T11:55:17.955Z,6.40
2022-12-06T11:58:01.275Z,11.23
2022-12-06T12:00:31.483Z,7.60
2022-12-06T12:02:59.045Z,6.25
2022-12-06T12:05:30.678Z,5.82
2022-12-06T12:08:16.663Z,9.93
2022-12-06T12:10:47.545Z,6.40
2022-12-06T12:13:38.615Z,5.78
2022-12-06T12:16:21.117Z,5.57
2022-12-06T12:19:05.983Z,8.25
2022-12-06T12:21:39.991Z,11.10
2022-12-06T12:25:03.145Z,9.52
2022-12-06T12:27:39.614Z,6.50
2022-12-06T12:30:21.617Z,5.97
2022-12-06T12:32:51.937Z,6.75
2022-12-06T12:35:22.769Z,11.25
2022-12-06T12:37:52.994Z,6.15
2022-12-06T12:40:30.630Z,5.82
2022-12-06T12:43:05.565Z,5.97
2022-12-06T12:45:33.271Z,5.75
2022-12-06T12:48:02.563Z,5.85
2022-12-06T12:50:32.787Z,5.35
2022-12-06T12:53:00.819Z,7.13
2022-12-06T12:55:31.038Z,10.48
2022-12-06T12:58:00.695Z,7.82
2022-12-06T13:00:46.255Z,7.55
2022-12-06T13:03:49.696Z,7.97
2022-12-06T13:06:07.436Z,7.50
2022-12-06T13:08:38.359Z,7.40
2022-12-06T13:11:06.581Z,11.40
2022-12-06T13:13:55.743Z,9.88
2022-12-06T13:16:34.806Z,8.88
2022-12-06T13:19:02.511Z,8.88
2022-12-06T13:21:36.303Z,9.32
2022-12-06T13:24:18.421Z,17.30
2022-12-06T13:26:53.880Z,33.60
2022-12-06T13:29:38.771Z,27.92
2022-12-06T13:32:22.722Z,51.65
2022-12-06T13:34:55.179Z,29.10
2022-12-06T13:37:52.268Z,17.73
2022-12-06T13:40:46.026Z,11.13
2022-12-06T13:43:25.985Z,9.85
2022-12-06T13:46:24.477Z,19.65
2022-12-06T13:49:00.662Z,28.83
2022-12-06T13:51:34.752Z,15.35
2022-12-06T13:54:04.801Z,22.48
2022-12-06T13:56:34.801Z,25.30
2022-12-06T13:59:04.779Z,19.45
2022-12-06T14:01:49.661Z,22.45
2022-12-06T14:07:00.322Z,13.20
2022-12-06T14:09:37.542Z,12.65
2022-12-06T14:12:10.379Z,12.65
2022-12-06T14:14:59.809Z,35.38
2022-12-06T14:18:03.556Z,26.98
2022-12-06T14:20:48.793Z,44.10
2022-12-06T14:23:26.425Z,30.00
2022-12-06T14:26:15.316Z,26.75
2022-12-06T14:28:43.470Z,20.60
2022-12-06T14:31:43.939Z,15.68
2022-12-06T14:34:29.105Z,13.05
2022-12-06T14:40:16.525Z,22.80
2022-12-06T14:43:02.787Z,15.82
2022-12-06T14:45:35.018Z,14.48
2022-12-06T14:48:04.434Z,13.48
2022-12-06T14:50:41.239Z,13.00
2022-12-06T14:53:27.872Z,11.32
2022-12-06T14:56:29.985Z,13.25
2022-12-06T14:58:59.620Z,13.18
2022-12-06T15:01:32.257Z,12.25
2022-12-06T15:04:06.359Z,11.00
2022-12-06T15:06:36.140Z,12.80
2022-12-06T15:09:03.437Z,8.55
2022-12-06T15:12:00.276Z,10.55
2022-12-06T15:14:48.097Z,19.00
2022-12-06T15:17:22.526Z,15.30
2022-12-06T15:19:53.696Z,13.90
2022-12-06T15:22:29.291Z,15.95
2022-12-06T15:25:00.420Z,18.15
2022-12-06T15:27:28.186Z,14.20
2022-12-06T15:29:55.914Z,11.80
2022-12-06T15:32:26.019Z,14.15
2022-12-06T15:34:56.175Z,37.05
2022-12-06T15:37:38.819Z,28.38
2022-12-06T15:40:07.681Z,29.38
2022-12-06T15:42:36.275Z,17.27
2022-12-06T15:45:03.710Z,16.50
2022-12-06T15:47:31.673Z,19.10
2022-12-06T15:49:59.040Z,20.90
2022-12-06T15:52:27.799Z,15.52
2022-12-06T15:54:54.928Z,23.15
2022-12-06T15:57:22.108Z,21.23
2022-12-06T15:59:49.872Z,21.90
2022-12-06T16:02:19.432Z,20.55
2022-12-06T16:04:50.584Z,16.02
2022-12-06T16:07:19.406Z,15.68
2022-12-06T16:09:48.026Z,19.00
2022-12-06T16:12:15.532Z,22.23
2022-12-06T16:14:42.796Z,27.33
2022-12-06T16:17:09.987Z,29.65
2022-12-06T16:19:55.857Z,29.38
2022-12-06T16:22:43.322Z,38.03
2022-12-06T16:25:10.765Z,50.67
2022-12-06T16:27:55.704Z,78.40
2022-12-06T16:30:58.771Z,83.32
2022-12-06T16:33:45.683Z,52.53
2022-12-06T16:36:51.894Z,32.38
2022-12-06T16:39:24.011Z,32.72
2022-12-06T16:41:50.990Z,38.55
2022-12-06T16:44:17.859Z,42.30
2022-12-06T16:46:46.795Z,34.00
2022-12-06T16:52:05.727Z,37.42
2022-12-06T16:54:32.928Z,38.42
2022-12-06T16:56:59.961Z,37.35
2022-12-06T16:59:27.215Z,38.15
2022-12-06T17:01:55.648Z,39.50
2022-12-06T17:04:23.370Z,20.50
2022-12-06T17:06:50.724Z,21.98
2022-12-06T17:09:17.671Z,23.95
2022-12-06T17:12:02.716Z,19.02
2022-12-06T17:14:30.154Z,17.20
2022-12-06T17:17:03.551Z,16.88
2022-12-06T17:19:32.373Z,18.58
2022-12-06T17:22:04.285Z,23.08
2022-12-06T17:24:31.324Z,19.83
2022-12-06T17:26:59.088Z,24.90
2022-12-06T17:29:26.357Z,24.08
2022-12-06T17:32:02.732Z,22.55
2022-12-06T17:34:29.800Z,20.63
2022-12-06T17:37:03.285Z,23.55
2022-12-06T17:39:30.274Z,23.77
2022-12-06T17:42:16.006Z,23.58
2022-12-06T17:44:43.099Z,25.50
2022-12-06T17:47:10.114Z,32.75
2022-12-06T17:49:38.505Z,34.50
2022-12-06T17:52:06.072Z,37.25
2022-12-06T17:54:34.788Z,42.03
2022-12-06T17:57:05.984Z,40.38
2022-12-06T17:59:39.937Z,37.22
2022-12-06T18:05:24.734Z,37.88
2022-12-06T18:07:51.861Z,40.88
2022-12-06T18:10:22.245Z,37.75
2022-12-06T18:13:01.205Z,30.17
2022-12-06T18:15:38.448Z,46.10
2022-12-06T18:18:15.357Z,38.60
2022-12-06T18:20:44.015Z,36.85
2022-12-06T18:23:11.050Z,39.30
2022-12-06T18:25:41.425Z,54.10
2022-12-06T18:28:09.015Z,62.33
2022-12-06T18:30:42.530Z,65.60
2022-12-06T18:33:16.234Z,69.57
2022-12-06T18:35:51.284Z,58.50
2022-12-06T18:38:28.402Z,53.40
2022-12-06T18:41:22.654Z,58.67
2022-12-06T18:43:49.815Z,57.40
2022-12-06T18:46:27.993Z,55.80
2022-12-06T18:49:00.170Z,50.58
2022-12-06T18:51:31.002Z,49.22
2022-12-06T18:53:59.518Z,48.65
2022-12-06T18:56:27.792Z,46.30
2022-12-06T18:58:55.022Z,55.30
2022-12-06T19:01:25.066Z,33.50
2022-12-06T19:03:52.858Z,32.65
2022-12-06T19:06:25.379Z,27.58
2022-12-06T19:12:03.366Z,25.75
2022-12-06T19:14:30.539Z,21.48
2022-12-06T19:16:58.347Z,29.75
2022-12-06T19:19:26.720Z,30.38
2022-12-06T19:21:54.704Z,32.05
2022-12-06T19:24:24.701Z,31.40
2022-12-06T19:26:59.312Z,39.28
2022-12-06T19:29:28.119Z,79.07
2022-12-06T19:31:55.137Z,74.40
2022-12-06T19:34:25.070Z,56.17
2022-12-06T19:36:53.625Z,60.72
2022-12-06T19:39:21.375Z,47.95
2022-12-06T19:42:06.852Z,37.03
2022-12-06T19:44:34.588Z,38.22
2022-12-06T19:47:02.787Z,24.13
2022-12-06T19:49:33.452Z,16.27
2022-12-06T19:52:04.226Z,14.53
2022-12-06T19:54:33.111Z,15.60
2022-12-06T19:57:01.397Z,18.58
2022-12-06T19:59:34.461Z,17.20
2022-12-06T20:02:03.442Z,22.35
2022-12-06T20:04:35.987Z,30.15
2022-12-06T20:07:05.002Z,33.63
2022-12-06T20:09:33.153Z,41.70
2022-12-06T20:12:01.808Z,77.38
2022-12-06T20:14:33.096Z,89.72
2022-12-06T20:17:00.693Z,36.35
2022-12-06T20:19:27.760Z,34.78
2022-12-06T20:21:55.300Z,32.58
2022-12-06T20:24:23.031Z,34.58
2022-12-06T20:26:52.354Z,37.63
2022-12-06T20:29:20.477Z,51.10
2022-12-06T20:32:11.625Z,57.38
2022-12-06T20:34:40.887Z,56.00
2022-12-06T20:37:08.297Z,51.70
2022-12-06T20:39:36.271Z,50.40
2022-12-06T20:42:05.865Z,49.03
2022-12-06T20:44:34.283Z,47.53
2022-12-06T20:47:01.503Z,58.13
2022-12-06T20:49:28.566Z,42.50
2022-12-06T20:51:56.703Z,45.38
2022-12-06T20:54:23.712Z,51.25
2022-12-06T20:56:53.674Z,44.30
2022-12-06T21:00:07.118Z,40.78
2022-12-06T21:02:35.188Z,54.20
2022-12-06T21:05:02.185Z,52.05
2022-12-06T21:07:29.033Z,45.50
2022-12-06T21:09:56.268Z,47.53
2022-12-06T21:12:23.234Z,56.38
2022-12-06T21:14:50.364Z,48.80
2022-12-06T21:17:17.329Z,44.08
2022-12-06T21:19:44.511Z,48.45
2022-12-06T21:22:11.781Z,43.83
2022-12-06T21:24:39.614Z,40.38
2022-12-06T21:27:06.586Z,46.65
2022-12-06T21:29:33.717Z,61.22
2022-12-06T21:32:01.700Z,57.67
2022-12-06T21:34:29.139Z,50.05
2022-12-06T21:36:56.158Z,53.17
2022-12-06T21:39:23.125Z,55.50
2022-12-06T21:41:50.600Z,51.13
2022-12-06T21:44:17.645Z,50.90
2022-12-06T21:46:44.829Z,47.08
2022-12-06T21:49:13.123Z,33.55
2022-12-06T21:51:40.341Z,29.92
2022-12-06T21:54:07.454Z,30.15
2022-12-06T21:56:35.124Z,27.05
2022-12-06T21:59:02.642Z,27.15
2022-12-06T22:01:31.143Z,30.08
2022-12-06T22:04:01.182Z,30.52
2022-12-06T22:06:28.357Z,32.33
2022-12-06T22:08:58.384Z,31.02
2022-12-06T22:11:25.380Z,30.35
2022-12-06T22:13:52.423Z,35.30
2022-12-06T22:16:19.570Z,31.58
2022-12-06T22:18:46.989Z,31.38
2022-12-06T22:21:19.401Z,37.13
2022-12-06T22:23:47.174Z,22.02
2022-12-06T22:26:17.724Z,17.55
2022-12-06T22:28:44.718Z,17.97
2022-12-06T22:31:13.146Z,16.65
2022-12-06T22:33:40.890Z,15.55
2022-12-06T22:36:08.778Z,15.63
2022-12-06T22:38:35.940Z,13.70
2022-12-06T22:41:03.254Z,13.45
2022-12-06T22:43:30.787Z,13.45
2022-12-06T22:46:09.708Z,12.90
2022-12-06T22:48:37.216Z,11.73
2022-12-06T22:51:24.783Z,11.70
2022-12-06T22:53:57.591Z,12.57
2022-12-06T22:56:26.004Z,14.02
2022-12-06T22:58:57.977Z,13.13
2022-12-06T23:01:27.569Z,12.32
2022-12-06T23:03:59.332Z,12.27
2022-12-06T23:06:26.681Z,12.88
2022-12-06T23:08:58.058Z,13.35
2022-12-06T23:11:34.025Z,14.27
2022-12-06T23:14:03.285Z,14.88
2022-12-06T23:16:31.314Z,16.17
2022-12-06T23:19:00.395Z,14.32
2022-12-06T23:21:33.149Z,16.80
2022-12-06T23:24:03.137Z,13.27
2022-12-06T23:26:33.990Z,11.85
2022-12-06T23:29:01.720Z,11.50
2022-12-06T23:31:31.487Z,11.82
2022-12-06T23:34:01.933Z,11.60
2022-12-06T23:36:32.268Z,13.13
2022-12-06T23:38:59.690Z,11.27
2022-12-06T23:41:30.041Z,11.13
2022-12-06T23:43:58.873Z,12.63
2022-12-06T23:46:29.255Z,12.20
2022-12-06T23:48:56.819Z,14.57
2022-12-06T23:51:27.083Z,13.73
2022-12-06T23:53:59.456Z,16.77
2022-12-06T23:56:28.985Z,19.55
2022-12-06T23:58:56.353Z,19.75
